sensor_id;sensor_type;location;lat;lon;timestamp;pressure;altitude;pressure_sealevel;temperature;humidity
8890;BME280;4481;43.406;24.454;2023-03-01T00:01:23;78664.78;;;-144.09;100.00
8890;BME280;4481;43.406;24.454;2023-03-01T00:03:51;78656.41;;;-144.09;100.00
8890;BME280;4481;43.406;24.454;2023-03-01T00:06:18;78643.84;;;-144.09;100.00
8890;BME280;4481;43.406;24.454;2023-03-01T00:08:44;78639.69;;;-144.09;100.00
8890;BME280;4481;43.406;24.454;2023-03-01T00:11:14;78671.03;;;-144.09;100.00
8890;BME280;4481;43.406;24.454;2023-03-01T00:13:42;78677.31;;;-144.09;100.00
8890;BME280;4481;43.406;24.454;2023-03-01T00:16:10;78675.22;;;-144.09;100.00
8890;BME280;4481;43.406;24.454;2023-03-01T00:18:37;78698.22;;;-144.09;100.00
8890;BME280;4481;43.406;24.454;2023-03-01T00:21:04;78683.59;;;-144.09;100.00
8890;BME280;4481;43.406;24.454;2023-03-01T00:23:31;78681.50;;;-144.09;100.00
8890;BME280;4481;43.406;24.454;2023-03-01T00:25:57;78671.03;;;-144.09;100.00
8890;BME280;4481;43.406;24.454;2023-03-01T00:28:23;78658.50;;;-144.09;100.00
8890;BME280;4481;43.406;24.454;2023-03-01T00:30:49;78691.94;;;-144.09;100.00
8890;BME280;4481;43.406;24.454;2023-03-01T00:33:15;78702.41;;;-144.09;100.00
8890;BME280;4481;43.406;24.454;2023-03-01T00:35:41;78712.84;;;-144.09;100.00
8890;BME280;4481;43.406;24.454;2023-03-01T00:38:08;78696.13;;;-144.09;100.00
8890;BME280;4481;43.406;24.454;2023-03-01T00:40:35;78706.59;;;-144.09;100.00
8890;BME280;4481;43.406;24.454;2023-03-01T00:43:02;78702.41;;;-144.09;100.00
8890;BME280;4481;43.406;24.454;2023-03-01T00:45:29;78691.94;;;-144.09;100.00
8890;BME280;4481;43.406;24.454;2023-03-01T00:47:56;78696.13;;;-144.09;100.00
8890;BME280;4481;43.406;24.454;2023-03-01T00:50:23;78694.03;;;-144.09;100.00
8890;BME280;4481;43.406;24.454;2023-03-01T00:52:52;78696.13;;;-144.09;100.00
8890;BME280;4481;43.406;24.454;2023-03-01T00:55:19;78689.84;;;-144.09;100.00
8890;BME280;4481;43.406;24.454;2023-03-01T00:57:45;78666.84;;;-144.09;100.00
8890;BME280;4481;43.406;24.454;2023-03-01T01:00:12;78694.03;;;-144.09;100.00
8890;BME280;4481;43.406;24.454;2023-03-01T01:02:38;78687.78;;;-144.09;100.00
8890;BME280;4481;43.406;24.454;2023-03-01T01:05:05;78679.41;;;-144.09;100.00
8890;BME280;4481;43.406;24.454;2023-03-01T01:07:31;78656.41;;;-144.09;100.00
8890;BME280;4481;43.406;24.454;2023-03-01T01:09:57;78654.31;;;-144.09;100.00
8890;BME280;4481;43.406;24.454;2023-03-01T01:12:24;78698.22;;;-144.09;100.00
8890;BME280;4481;43.406;24.454;2023-03-01T01:14:50;78694.03;;;-144.09;100.00
8890;BME280;4481;43.406;24.454;2023-03-01T01:17:16;78681.50;;;-144.09;100.00
8890;BME280;4481;43.406;24.454;2023-03-01T01:19:42;78677.31;;;-144.09;100.00
8890;BME280;4481;43.406;24.454;2023-03-01T01:22:09;78648.03;;;-144.09;100.00
8890;BME280;4481;43.406;24.454;2023-03-01T01:24:35;78673.13;;;-144.09;100.00
8890;BME280;4481;43.406;24.454;2023-03-01T01:27:02;78650.13;;;-144.09;100.00
8890;BME280;4481;43.406;24.454;2023-03-01T01:29:28;78629.22;;;-144.09;100.00
8890;BME280;4481;43.406;24.454;2023-03-01T01:31:54;78631.31;;;-144.09;100.00
8890;BME280;4481;43.406;24.454;2023-03-01T01:34:21;78618.78;;;-144.09;100.00
8890;BME280;4481;43.406;24.454;2023-03-01T01:36:48;78648.03;;;-144.09;100.00
8890;BME280;4481;43.406;24.454;2023-03-01T01:39:15;78627.13;;;-144.09;100.00
8890;BME280;4481;43.406;24.454;2023-03-01T01:41:42;78620.84;;;-144.09;100.00
8890;BME280;4481;43.406;24.454;2023-03-01T01:44:14;78602.03;;;-144.09;100.00
8890;BME280;4481;43.406;24.454;2023-03-01T01:46:43;78616.69;;;-144.09;100.00
8890;BME280;4481;43.406;24.454;2023-03-01T01:49:19;78631.31;;;-144.09;100.00
8890;BME280;4481;43.406;24.454;2023-03-01T01:51:51;78614.59;;;-144.09;100.00
8890;BME280;4481;43.406;24.454;2023-03-01T01:54:21;78593.69;;;-144.09;100.00
8890;BME280;4481;43.406;24.454;2023-03-01T01:56:55;78610.41;;;-144.09;100.00
8890;BME280;4481;43.406;24.454;2023-03-01T01:59:23;78591.59;;;-144.09;100.00
8890;BME280;4481;43.406;24.454;2023-03-01T02:01:51;78564.41;;;-144.09;100.00
8890;BME280;4481;43.406;24.454;2023-03-01T02:04:18;78549.78;;;-144.09;100.00
8890;BME280;4481;43.406;24.454;2023-03-01T02:06:48;78591.59;;;-144.09;100.00
8890;BME280;4481;43.406;24.454;2023-03-01T02:09:16;78581.13;;;-144.09;100.00
8890;BME280;4481;43.406;24.454;2023-03-01T02:11:44;78591.59;;;-144.09;100.00
8890;BME280;4481;43.406;24.454;2023-03-01T02:14:10;78599.94;;;-144.09;100.00
8890;BME280;4481;43.406;24.454;2023-03-01T02:16:37;78587.41;;;-144.09;100.00
8890;BME280;4481;43.406;24.454;2023-03-01T02:19:04;78574.88;;;-144.09;100.00
8890;BME280;4481;43.406;24.454;2023-03-01T02:21:38;78608.31;;;-144.09;100.00
8890;BME280;4481;43.406;24.454;2023-03-01T02:24:17;78614.59;;;-144.09;100.00
8890;BME280;4481;43.406;24.454;2023-03-01T02:26:49;78614.59;;;-144.09;100.00
8890;BME280;4481;43.406;24.454;2023-03-01T02:29:18;78612.50;;;-144.09;100.00
8890;BME280;4481;43.406;24.454;2023-03-01T02:31:44;78627.13;;;-144.09;100.00
8890;BME280;4481;43.406;24.454;2023-03-01T02:34:13;78583.22;;;-144.09;100.00
8890;BME280;4481;43.406;24.454;2023-03-01T02:36:41;78572.78;;;-144.09;100.00
8890;BME280;4481;43.406;24.454;2023-03-01T02:39:12;78597.88;;;-144.09;100.00
8890;BME280;4481;43.406;24.454;2023-03-01T02:41:45;78599.94;;;-144.09;100.00
8890;BME280;4481;43.406;24.454;2023-03-01T02:44:12;78593.69;;;-144.09;100.00
8890;BME280;4481;43.406;24.454;2023-03-01T02:46:44;78549.78;;;-144.09;100.00
8890;BME280;4481;43.406;24.454;2023-03-01T02:49:22;78535.13;;;-144.09;100.00
8890;BME280;4481;43.406;24.454;2023-03-01T02:51:59;78524.69;;;-144.09;100.00
8890;BME280;4481;43.406;24.454;2023-03-01T02:54:29;78526.78;;;-144.09;100.00
8890;BME280;4481;43.406;24.454;2023-03-01T02:57:00;78518.41;;;-144.09;100.00
8890;BME280;4481;43.406;24.454;2023-03-01T02:59:30;78528.88;;;-144.09;100.00
8890;BME280;4481;43.406;24.454;2023-03-01T03:01:58;78510.06;;;-144.09;100.00
8890;BME280;4481;43.406;24.454;2023-03-01T03:04:26;78524.69;;;-144.09;100.00
8890;BME280;4481;43.406;24.454;2023-03-01T03:06:52;78520.50;;;-144.09;100.00
8890;BME280;4481;43.406;24.454;2023-03-01T03:09:19;78545.59;;;-144.09;100.00
8890;BME280;4481;43.406;24.454;2023-03-01T03:11:45;78558.13;;;-144.09;100.00
8890;BME280;4481;43.406;24.454;2023-03-01T03:14:13;78564.41;;;-144.09;100.00
8890;BME280;4481;43.406;24.454;2023-03-01T03:16:40;78541.41;;;-144.09;100.00
8890;BME280;4481;43.406;24.454;2023-03-01T03:19:08;78524.69;;;-144.09;100.00
8890;BME280;4481;43.406;24.454;2023-03-01T03:21:34;78507.97;;;-144.09;100.00
8890;BME280;4481;43.406;24.454;2023-03-01T03:24:00;78512.13;;;-144.09;100.00
8890;BME280;4481;43.406;24.454;2023-03-01T03:26:27;78510.06;;;-144.09;100.00
8890;BME280;4481;43.406;24.454;2023-03-01T03:28:53;78570.69;;;-144.09;100.00
8890;BME280;4481;43.406;24.454;2023-03-01T03:31:19;78556.03;;;-144.09;100.00
8890;BME280;4481;43.406;24.454;2023-03-01T03:33:46;78568.59;;;-144.09;100.00
8890;BME280;4481;43.406;24.454;2023-03-01T03:36:16;78579.03;;;-144.09;100.00
8890;BME280;4481;43.406;24.454;2023-03-01T03:38:43;78566.50;;;-144.09;100.00
8890;BME280;4481;43.406;24.454;2023-03-01T03:41:10;78566.50;;;-144.09;100.00
8890;BME280;4481;43.406;24.454;2023-03-01T03:43:37;78545.59;;;-144.09;100.00
8890;BME280;4481;43.406;24.454;2023-03-01T03:46:04;78581.13;;;-144.09;100.00
8890;BME280;4481;43.406;24.454;2023-03-01T03:48:31;78560.22;;;-144.09;100.00
8890;BME280;4481;43.406;24.454;2023-03-01T03:50:58;78549.78;;;-144.09;100.00
8890;BME280;4481;43.406;24.454;2023-03-01T03:53:27;78579.03;;;-144.09;100.00
8890;BME280;4481;43.406;24.454;2023-03-01T03:55:53;78602.03;;;-144.09;100.00
8890;BME280;4481;43.406;24.454;2023-03-01T03:58:22;78608.31;;;-144.09;100.00
8890;BME280;4481;43.406;24.454;2023-03-01T04:00:50;78595.78;;;-144.09;100.00
8890;BME280;4481;43.406;24.454;2023-03-01T04:03:17;78599.94;;;-144.09;100.00
8890;BME280;4481;43.406;24.454;2023-03-01T04:05:44;78612.50;;;-144.09;100.00
8890;BME280;4481;43.406;24.454;2023-03-01T04:08:11;78587.41;;;-144.09;100.00
8890;BME280;4481;43.406;24.454;2023-03-01T04:10:39;78579.03;;;-144.09;100.00
8890;BME280;4481;43.406;24.454;2023-03-01T04:13:10;78572.78;;;-144.09;100.00
8890;BME280;4481;43.406;24.454;2023-03-01T04:15:37;78587.41;;;-144.09;100.00
8890;BME280;4481;43.406;24.454;2023-03-01T04:18:04;78595.78;;;-144.09;100.00
8890;BME280;4481;43.406;24.454;2023-03-01T04:20:33;78593.69;;;-144.09;100.00
8890;BME280;4481;43.406;24.454;2023-03-01T04:23:01;78625.03;;;-144.09;100.00
8890;BME280;4481;43.406;24.454;2023-03-01T04:25:36;78622.94;;;-144.09;100.00
8890;BME280;4481;43.406;24.454;2023-03-01T04:28:04;78612.50;;;-144.09;100.00
8890;BME280;4481;43.406;24.454;2023-03-01T04:30:30;78620.84;;;-144.09;100.00
8890;BME280;4481;43.406;24.454;2023-03-01T04:33:01;78631.31;;;-144.09;100.00
8890;BME280;4481;43.406;24.454;2023-03-01T04:35:28;78629.22;;;-144.09;100.00
8890;BME280;4481;43.406;24.454;2023-03-01T04:37:54;78622.94;;;-144.09;100.00
8890;BME280;4481;43.406;24.454;2023-03-01T04:40:20;78608.31;;;-144.09;100.00
8890;BME280;4481;43.406;24.454;2023-03-01T04:42:46;78579.03;;;-144.09;100.00
8890;BME280;4481;43.406;24.454;2023-03-01T04:45:13;78572.78;;;-144.09;100.00
8890;BME280;4481;43.406;24.454;2023-03-01T04:47:40;78597.88;;;-144.09;100.00
8890;BME280;4481;43.406;24.454;2023-03-01T04:50:09;78629.22;;;-144.09;100.00
8890;BME280;4481;43.406;24.454;2023-03-01T04:52:35;78645.94;;;-144.09;100.00
8890;BME280;4481;43.406;24.454;2023-03-01T04:55:02;78645.94;;;-144.09;100.00
8890;BME280;4481;43.406;24.454;2023-03-01T04:57:29;78639.69;;;-144.09;100.00
8890;BME280;4481;43.406;24.454;2023-03-01T04:59:55;78625.03;;;-144.09;100.00
8890;BME280;4481;43.406;24.454;2023-03-01T05:02:22;78604.13;;;-144.09;100.00
8890;BME280;4481;43.406;24.454;2023-03-01T05:04:48;78593.69;;;-144.09;100.00
8890;BME280;4481;43.406;24.454;2023-03-01T05:07:14;78597.88;;;-144.09;100.00
8890;BME280;4481;43.406;24.454;2023-03-01T05:09:44;78625.03;;;-144.09;100.00
8890;BME280;4481;43.406;24.454;2023-03-01T05:12:11;78599.94;;;-144.09;100.00
8890;BME280;4481;43.406;24.454;2023-03-01T05:14:37;78625.03;;;-144.09;100.00
8890;BME280;4481;43.406;24.454;2023-03-01T05:17:03;78629.22;;;-144.09;100.00
8890;BME280;4481;43.406;24.454;2023-03-01T05:19:30;78622.94;;;-144.09;100.00
8890;BME280;4481;43.406;24.454;2023-03-01T05:21:58;78593.69;;;-144.09;100.00
8890;BME280;4481;43.406;24.454;2023-03-01T05:24:27;78591.59;;;-144.09;100.00
8890;BME280;4481;43.406;24.454;2023-03-01T05:26:54;78585.31;;;-144.09;100.00
8890;BME280;4481;43.406;24.454;2023-03-01T05:29:21;78568.59;;;-144.09;100.00
8890;BME280;4481;43.406;24.454;2023-03-01T05:31:51;78593.69;;;-144.09;100.00
8890;BME280;4481;43.406;24.454;2023-03-01T05:34:17;78597.88;;;-144.09;100.00
8890;BME280;4481;43.406;24.454;2023-03-01T05:36:44;78589.50;;;-144.09;100.00
8890;BME280;4481;43.406;24.454;2023-03-01T05:39:10;78585.31;;;-144.09;100.00
8890;BME280;4481;43.406;24.454;2023-03-01T05:41:36;78566.50;;;-144.09;100.00
8890;BME280;4481;43.406;24.454;2023-03-01T05:44:02;78583.22;;;-144.09;100.00
8890;BME280;4481;43.406;24.454;2023-03-01T05:46:30;78602.03;;;-144.09;100.00
8890;BME280;4481;43.406;24.454;2023-03-01T05:48:56;78585.31;;;-144.09;100.00
8890;BME280;4481;43.406;24.454;2023-03-01T05:51:22;78589.50;;;-144.09;100.00
8890;BME280;4481;43.406;24.454;2023-03-01T05:53:49;78612.50;;;-144.09;100.00
8890;BME280;4481;43.406;24.454;2023-03-01T05:56:15;78583.22;;;-144.09;100.00
8890;BME280;4481;43.406;24.454;2023-03-01T05:58:41;78608.31;;;-144.09;100.00
8890;BME280;4481;43.406;24.454;2023-03-01T06:01:11;78610.41;;;-144.09;100.00
8890;BME280;4481;43.406;24.454;2023-03-01T06:03:38;78587.41;;;-144.09;100.00
8890;BME280;4481;43.406;24.454;2023-03-01T06:06:05;78595.78;;;-144.09;100.00
8890;BME280;4481;43.406;24.454;2023-03-01T06:08:39;78602.03;;;-144.09;100.00
8890;BME280;4481;43.406;24.454;2023-03-01T06:11:05;78616.69;;;-144.09;100.00
8890;BME280;4481;43.406;24.454;2023-03-01T06:13:32;78614.59;;;-144.09;100.00
8890;BME280;4481;43.406;24.454;2023-03-01T06:15:58;78616.69;;;-144.09;100.00
8890;BME280;4481;43.406;24.454;2023-03-01T06:18:25;78633.41;;;-144.09;100.00
8890;BME280;4481;43.406;24.454;2023-03-01T06:20:52;78641.78;;;-144.09;100.00
8890;BME280;4481;43.406;24.454;2023-03-01T06:23:19;78616.69;;;-144.09;100.00
8890;BME280;4481;43.406;24.454;2023-03-01T06:25:45;78625.03;;;-144.09;100.00
8890;BME280;4481;43.406;24.454;2023-03-01T06:28:12;78616.69;;;-144.09;100.00
8890;BME280;4481;43.406;24.454;2023-03-01T06:30:38;78599.94;;;-144.09;100.00
8890;BME280;4481;43.406;24.454;2023-03-01T06:33:04;78614.59;;;-144.09;100.00
8890;BME280;4481;43.406;24.454;2023-03-01T06:35:31;78597.88;;;-144.09;100.00
8890;BME280;4481;43.406;24.454;2023-03-01T06:37:58;78625.03;;;-144.09;100.00
8890;BME280;4481;43.406;24.454;2023-03-01T06:40:25;78614.59;;;-144.09;100.00
8890;BME280;4481;43.406;24.454;2023-03-01T06:42:51;78597.88;;;-144.09;100.00
8890;BME280;4481;43.406;24.454;2023-03-01T06:45:20;78599.94;;;-144.09;100.00
8890;BME280;4481;43.406;24.454;2023-03-01T06:47:46;78583.22;;;-144.09;100.00
8890;BME280;4481;43.406;24.454;2023-03-01T06:50:13;78568.59;;;-144.09;100.00
8890;BME280;4481;43.406;24.454;2023-03-01T06:52:40;78547.69;;;-144.09;100.00
8890;BME280;4481;43.406;24.454;2023-03-01T06:55:07;78549.78;;;-144.09;100.00
8890;BME280;4481;43.406;24.454;2023-03-01T06:57:33;78551.88;;;-144.09;100.00
8890;BME280;4481;43.406;24.454;2023-03-01T06:59:59;78533.03;;;-144.09;100.00
8890;BME280;4481;43.406;24.454;2023-03-01T07:02:26;78528.88;;;-144.09;100.00
8890;BME280;4481;43.406;24.454;2023-03-01T07:04:52;78503.78;;;-144.09;100.00
8890;BME280;4481;43.406;24.454;2023-03-01T07:07:18;78537.22;;;-144.09;100.00
8890;BME280;4481;43.406;24.454;2023-03-01T07:09:45;78581.13;;;-144.09;100.00
8890;BME280;4481;43.406;24.454;2023-03-01T07:12:11;78556.03;;;-144.09;100.00
8890;BME280;4481;43.406;24.454;2023-03-01T07:14:38;78549.78;;;-144.09;100.00
8890;BME280;4481;43.406;24.454;2023-03-01T07:17:04;78551.88;;;-144.09;100.00
8890;BME280;4481;43.406;24.454;2023-03-01T07:19:31;78556.03;;;-144.09;100.00
8890;BME280;4481;43.406;24.454;2023-03-01T07:21:59;78535.13;;;-144.09;100.00
8890;BME280;4481;43.406;24.454;2023-03-01T07:24:25;78558.13;;;-144.09;100.00
8890;BME280;4481;43.406;24.454;2023-03-01T07:26:51;78591.59;;;-144.09;100.00
8890;BME280;4481;43.406;24.454;2023-03-01T07:29:18;78606.22;;;-144.09;100.00
8890;BME280;4481;43.406;24.454;2023-03-01T07:31:46;78593.69;;;-144.09;100.00
8890;BME280;4481;43.406;24.454;2023-03-01T07:34:12;78608.31;;;-144.09;100.00
8890;BME280;4481;43.406;24.454;2023-03-01T07:36:39;78585.31;;;-144.09;100.00
8890;BME280;4481;43.406;24.454;2023-03-01T07:39:09;78585.31;;;-144.09;100.00
8890;BME280;4481;43.406;24.454;2023-03-01T07:41:36;78587.41;;;-144.09;100.00
8890;BME280;4481;43.406;24.454;2023-03-01T07:44:02;78574.88;;;-144.09;100.00
8890;BME280;4481;43.406;24.454;2023-03-01T07:46:28;78604.13;;;-144.09;100.00
8890;BME280;4481;43.406;24.454;2023-03-01T07:48:54;78579.03;;;-144.09;100.00
8890;BME280;4481;43.406;24.454;2023-03-01T07:51:20;78564.41;;;-144.09;100.00
8890;BME280;4481;43.406;24.454;2023-03-01T07:53:48;78587.41;;;-144.09;100.00
8890;BME280;4481;43.406;24.454;2023-03-01T07:56:15;78574.88;;;-144.09;100.00
8890;BME280;4481;43.406;24.454;2023-03-01T07:58:44;78629.22;;;-144.09;100.00
8890;BME280;4481;43.406;24.454;2023-03-01T08:01:12;78614.59;;;-144.09;100.00
8890;BME280;4481;43.406;24.454;2023-03-01T08:03:39;78608.31;;;-144.09;100.00
8890;BME280;4481;43.406;24.454;2023-03-01T08:06:07;78612.50;;;-144.09;100.00
8890;BME280;4481;43.406;24.454;2023-03-01T08:08:33;78585.31;;;-144.09;100.00
8890;BME280;4481;43.406;24.454;2023-03-01T08:11:02;78566.50;;;-144.09;100.00
8890;BME280;4481;43.406;24.454;2023-03-01T08:13:29;78589.50;;;-144.09;100.00
8890;BME280;4481;43.406;24.454;2023-03-01T08:16:01;78608.31;;;-144.09;100.00
8890;BME280;4481;43.406;24.454;2023-03-01T08:18:27;78599.94;;;-144.09;100.00
8890;BME280;4481;43.406;24.454;2023-03-01T08:20:53;78591.59;;;-144.09;100.00
8890;BME280;4481;43.406;24.454;2023-03-01T08:23:20;78579.03;;;-144.09;100.00
8890;BME280;4481;43.406;24.454;2023-03-01T08:25:46;78585.31;;;-144.09;100.00
8890;BME280;4481;43.406;24.454;2023-03-01T08:28:13;78560.22;;;-144.09;100.00
8890;BME280;4481;43.406;24.454;2023-03-01T08:30:40;78560.22;;;-144.09;100.00
8890;BME280;4481;43.406;24.454;2023-03-01T08:33:07;78572.78;;;-144.09;100.00
8890;BME280;4481;43.406;24.454;2023-03-01T08:35:33;78591.59;;;-144.09;100.00
8890;BME280;4481;43.406;24.454;2023-03-01T08:38:00;78587.41;;;-144.09;100.00
8890;BME280;4481;43.406;24.454;2023-03-01T08:40:26;78562.31;;;-144.09;100.00
8890;BME280;4481;43.406;24.454;2023-03-01T08:42:52;78556.03;;;-144.09;100.00
8890;BME280;4481;43.406;24.454;2023-03-01T08:45:19;78551.88;;;-144.09;100.00
8890;BME280;4481;43.406;24.454;2023-03-01T08:47:45;78551.88;;;-144.09;100.00
8890;BME280;4481;43.406;24.454;2023-03-01T08:50:12;78572.78;;;-144.09;100.00
8890;BME280;4481;43.406;24.454;2023-03-01T08:52:41;78570.69;;;-144.09;100.00
8890;BME280;4481;43.406;24.454;2023-03-01T08:55:10;78537.22;;;-144.09;100.00
8890;BME280;4481;43.406;24.454;2023-03-01T08:57:36;78530.97;;;-144.09;100.00
8890;BME280;4481;43.406;24.454;2023-03-01T09:00:03;78512.13;;;-144.09;100.00
8890;BME280;4481;43.406;24.454;2023-03-01T09:02:34;78487.06;;;-144.09;100.00
8890;BME280;4481;43.406;24.454;2023-03-01T09:05:02;78522.59;;;-144.09;100.00
8890;BME280;4481;43.406;24.454;2023-03-01T09:07:28;78516.31;;;-144.09;100.00
8890;BME280;4481;43.406;24.454;2023-03-01T09:09:55;78530.97;;;-144.09;100.00
8890;BME280;4481;43.406;24.454;2023-03-01T09:12:21;78547.69;;;-144.09;100.00
8890;BME280;4481;43.406;24.454;2023-03-01T09:14:47;78556.03;;;-144.09;100.00
8890;BME280;4481;43.406;24.454;2023-03-01T09:17:14;78570.69;;;-144.09;100.00
8890;BME280;4481;43.406;24.454;2023-03-01T09:19:44;78537.22;;;-144.09;100.00
8890;BME280;4481;43.406;24.454;2023-03-01T09:22:12;78535.13;;;-144.09;100.00
8890;BME280;4481;43.406;24.454;2023-03-01T09:24:38;78547.69;;;-144.09;100.00
8890;BME280;4481;43.406;24.454;2023-03-01T09:27:04;78562.31;;;-144.09;100.00
8890;BME280;4481;43.406;24.454;2023-03-01T09:29:34;78572.78;;;-144.09;100.00
8890;BME280;4481;43.406;24.454;2023-03-01T09:32:00;78579.03;;;-144.09;100.00
8890;BME280;4481;43.406;24.454;2023-03-01T09:34:27;78579.03;;;-144.09;100.00
8890;BME280;4481;43.406;24.454;2023-03-01T09:36:54;78556.03;;;-144.09;100.00
8890;BME280;4481;43.406;24.454;2023-03-01T09:39:20;78539.31;;;-144.09;100.00
8890;BME280;4481;43.406;24.454;2023-03-01T09:41:50;78556.03;;;-144.09;100.00
8890;BME280;4481;43.406;24.454;2023-03-01T09:44:31;78566.50;;;-144.09;100.00
8890;BME280;4481;43.406;24.454;2023-03-01T09:46:59;78524.69;;;-144.09;100.00
8890;BME280;4481;43.406;24.454;2023-03-01T09:49:28;78537.22;;;-144.09;100.00
8890;BME280;4481;43.406;24.454;2023-03-01T09:52:00;78505.88;;;-144.09;100.00
8890;BME280;4481;43.406;24.454;2023-03-01T09:54:27;78474.50;;;-144.09;100.00
8890;BME280;4481;43.406;24.454;2023-03-01T09:57:18;78474.50;;;-144.09;100.00
8890;BME280;4481;43.406;24.454;2023-03-01T10:02:39;78436.88;;;-144.09;100.00
8890;BME280;4481;43.406;24.454;2023-03-01T10:05:22;78457.78;;;-144.09;100.00
8890;BME280;4481;43.406;24.454;2023-03-01T10:07:59;78510.06;;;-144.09;100.00
8890;BME280;4481;43.406;24.454;2023-03-01T10:10:31;78520.50;;;-144.09;100.00
8890;BME280;4481;43.406;24.454;2023-03-01T10:13:00;78510.06;;;-144.09;100.00
8890;BME280;4481;43.406;24.454;2023-03-01T10:15:34;78539.31;;;-144.09;100.00
8890;BME280;4481;43.406;24.454;2023-03-01T10:18:06;78539.31;;;-144.09;100.00
8890;BME280;4481;43.406;24.454;2023-03-01T10:20:43;78530.97;;;-144.09;100.00
8890;BME280;4481;43.406;24.454;2023-03-01T10:23:13;78491.22;;;-144.09;100.00
8890;BME280;4481;43.406;24.454;2023-03-01T10:25:47;78499.59;;;-144.09;100.00
8890;BME280;4481;43.406;24.454;2023-03-01T10:28:23;78535.13;;;-144.09;100.00
8890;BME280;4481;43.406;24.454;2023-03-01T10:30:53;78510.06;;;-144.09;100.00
8890;BME280;4481;43.406;24.454;2023-03-01T10:33:25;78520.50;;;-144.09;100.00
8890;BME280;4481;43.406;24.454;2023-03-01T10:35:52;78510.06;;;-144.09;100.00
8890;BME280;4481;43.406;24.454;2023-03-01T10:38:20;78512.13;;;-144.09;100.00
8890;BME280;4481;43.406;24.454;2023-03-01T10:40:54;78495.41;;;-144.09;100.00
8890;BME280;4481;43.406;24.454;2023-03-01T10:43:23;78491.22;;;-144.09;100.00
8890;BME280;4481;43.406;24.454;2023-03-01T10:45:50;78484.97;;;-144.09;100.00
8890;BME280;4481;43.406;24.454;2023-03-01T10:48:18;78480.78;;;-144.09;100.00
8890;BME280;4481;43.406;24.454;2023-03-01T10:50:48;78514.22;;;-144.09;100.00
8890;BME280;4481;43.406;24.454;2023-03-01T10:53:25;78505.88;;;-144.09;100.00
8890;BME280;4481;43.406;24.454;2023-03-01T10:55:59;78489.16;;;-144.09;100.00
8890;BME280;4481;43.406;24.454;2023-03-01T10:58:26;78476.59;;;-144.09;100.00
8890;BME280;4481;43.406;24.454;2023-03-01T11:00:54;78453.59;;;-144.09;100.00
8890;BME280;4481;43.406;24.454;2023-03-01T11:03:23;78428.50;;;-144.09;100.00
8890;BME280;4481;43.406;24.454;2023-03-01T11:05:54;78386.69;;;-144.09;100.00
8890;BME280;4481;43.406;24.454;2023-03-01T11:08:41;78395.06;;;-144.09;100.00
8890;BME280;4481;43.406;24.454;2023-03-01T11:11:21;78361.59;;;-144.09;100.00
8890;BME280;4481;43.406;24.454;2023-03-01T11:13:56;78330.25;;;-144.09;100.00
8890;BME280;4481;43.406;24.454;2023-03-01T11:16:26;78319.78;;;-144.09;100.00
8890;BME280;4481;43.406;24.454;2023-03-01T11:18:57;78317.72;;;-144.09;100.00
8890;BME280;4481;43.406;24.454;2023-03-01T11:21:25;78303.06;;;-144.09;100.00
8890;BME280;4481;43.406;24.454;2023-03-01T11:23:53;78275.91;;;-144.09;100.00
8890;BME280;4481;43.406;24.454;2023-03-01T11:26:19;78265.44;;;-144.09;100.00
8890;BME280;4481;43.406;24.454;2023-03-01T11:28:51;78244.53;;;-144.09;100.00
8890;BME280;4481;43.406;24.454;2023-03-01T11:31:20;78232.00;;;-144.09;100.00
8890;BME280;4481;43.406;24.454;2023-03-01T11:33:54;78250.81;;;-144.09;100.00
8890;BME280;4481;43.406;24.454;2023-03-01T11:36:28;78234.09;;;-144.09;100.00
8890;BME280;4481;43.406;24.454;2023-03-01T11:38:57;78229.91;;;-144.09;100.00
8890;BME280;4481;43.406;24.454;2023-03-01T11:41:30;78244.53;;;-144.09;100.00
8890;BME280;4481;43.406;24.454;2023-03-01T11:43:59;78227.81;;;-144.09;100.00
8890;BME280;4481;43.406;24.454;2023-03-01T11:46:49;78234.09;;;-144.09;100.00
8890;BME280;4481;43.406;24.454;2023-03-01T11:49:32;78265.44;;;-144.09;100.00
8890;BME280;4481;43.406;24.454;2023-03-01T11:52:04;78277.97;;;-144.09;100.00
8890;BME280;4481;43.406;24.454;2023-03-01T11:54:45;78273.81;;;-144.09;100.00
8890;BME280;4481;43.406;24.454;2023-03-01T11:57:21;78282.16;;;-144.09;100.00
8890;BME280;4481;43.406;24.454;2023-03-01T12:00:06;78255.00;;;-144.09;100.00
8890;BME280;4481;43.406;24.454;2023-03-01T12:02:58;78246.63;;;-144.09;100.00
8890;BME280;4481;43.406;24.454;2023-03-01T12:05:49;78223.63;;;-144.09;100.00
8890;BME280;4481;43.406;24.454;2023-03-01T12:08:21;78259.16;;;-144.09;100.00
8890;BME280;4481;43.406;24.454;2023-03-01T12:10:59;78305.16;;;-144.09;100.00
8890;BME280;4481;43.406;24.454;2023-03-01T12:16:59;78315.63;;;-144.09;100.00
8890;BME280;4481;43.406;24.454;2023-03-01T12:19:36;78363.69;;;-144.09;100.00
8890;BME280;4481;43.406;24.454;2023-03-01T12:22:17;78332.34;;;-144.09;100.00
8890;BME280;4481;43.406;24.454;2023-03-01T12:25:16;78365.78;;;-144.09;100.00
8890;BME280;4481;43.406;24.454;2023-03-01T12:27:59;78334.44;;;-144.09;100.00
8890;BME280;4481;43.406;24.454;2023-03-01T12:30:36;78349.06;;;-144.09;100.00
8890;BME280;4481;43.406;24.454;2023-03-01T12:33:16;78328.16;;;-144.09;100.00
8890;BME280;4481;43.406;24.454;2023-03-01T12:36:01;78286.34;;;-144.09;100.00
8890;BME280;4481;43.406;24.454;2023-03-01T12:38:33;78292.63;;;-144.09;100.00
8890;BME280;4481;43.406;24.454;2023-03-01T12:41:15;78290.53;;;-144.09;100.00
8890;BME280;4481;43.406;24.454;2023-03-01T12:43:56;78282.16;;;-144.09;100.00
8890;BME280;4481;43.406;24.454;2023-03-01T12:46:32;78255.00;;;-144.09;100.00
8890;BME280;4481;43.406;24.454;2023-03-01T12:49:08;78246.63;;;-144.09;100.00
8890;BME280;4481;43.406;24.454;2023-03-01T12:51:38;78273.81;;;-144.09;100.00
8890;BME280;4481;43.406;24.454;2023-03-01T12:54:14;78275.91;;;-144.09;100.00
8890;BME280;4481;43.406;24.454;2023-03-01T12:56:41;78275.91;;;-144.09;100.00